Memramcook, Canada
Current Conditions -  °F | °C
As of 2:00 PM on Thursday 18 Dec 2014 (Local Time) from CYQM Reporting Station
Snow Showers Snow Showers  
Wind Chill: 25°   Ceiling: 300
Heat Index: 34°   Visibility: 1.5mi
Dew Point: 32°   Wind: 12mph
Humidity: 93%   Direction: 230°SW
Pressure: 29.31"   Gusts: NA
Location:  46.01°N, 64.54°W
Report Text: CYQM 181800Z 23010KT 1 1/2SM -SHSN BR OVC003 01/00 A2931 RMK SF8 SLP929
Loading
Personal Weather Stations






























Interactive Weather Map New forecast layout! Learn more

10-Day Weather Forecast

Advertisements
Track Severe Weather on mobile